createdAt,value
2023-01-12T00:01:16.684Z,10.98
2023-01-12T00:03:46.316Z,11.27
2023-01-12T00:06:15.593Z,11.27
2023-01-12T00:08:45.303Z,11.23
2023-01-12T00:11:15.281Z,11.35
2023-01-12T00:13:44.163Z,12.23
2023-01-12T00:16:38.138Z,10.85
2023-01-12T00:19:18.217Z,12.63
2023-01-12T00:22:01.125Z,10.85
2023-01-12T00:24:33.552Z,11.07
2023-01-12T00:27:05.003Z,10.32
2023-01-12T00:32:04.200Z,10.70
2023-01-12T00:34:34.114Z,10.45
2023-01-12T00:37:05.695Z,10.50
2023-01-12T00:39:40.796Z,10.55
2023-01-12T00:42:32.713Z,10.38
2023-01-12T00:45:23.876Z,9.82
2023-01-12T00:47:54.589Z,9.13
2023-01-12T00:50:24.522Z,9.20
2023-01-12T00:52:53.403Z,10.35
2023-01-12T00:55:22.744Z,9.65
2023-01-12T00:57:53.339Z,8.70
2023-01-12T01:00:23.384Z,9.73
2023-01-12T01:02:53.528Z,9.15
2023-01-12T01:05:23.496Z,10.20
2023-01-12T01:07:53.414Z,9.32
2023-01-12T01:10:22.831Z,8.80
2023-01-12T01:12:53.028Z,8.60
2023-01-12T01:15:22.023Z,9.00
2023-01-12T01:17:51.546Z,9.57
2023-01-12T01:20:20.986Z,9.30
2023-01-12T01:22:50.451Z,10.13
2023-01-12T01:25:19.840Z,11.63
2023-01-12T01:27:49.643Z,11.00
2023-01-12T01:30:18.784Z,9.50
2023-01-12T01:32:47.963Z,9.20
2023-01-12T01:35:18.768Z,8.57
2023-01-12T01:37:48.648Z,8.10
2023-01-12T01:40:21.489Z,9.10
2023-01-12T01:42:51.559Z,8.25
2023-01-12T01:45:21.504Z,9.65
2023-01-12T01:47:58.460Z,8.90
2023-01-12T01:50:39.414Z,8.63
2023-01-12T01:53:17.395Z,9.73
2023-01-12T01:56:06.627Z,9.30
2023-01-12T01:58:44.473Z,9.32
2023-01-12T02:01:13.363Z,9.27
2023-01-12T02:03:44.368Z,9.80
2023-01-12T02:06:15.976Z,8.90
2023-01-12T02:09:09.425Z,9.45
2023-01-12T02:11:57.973Z,8.73
2023-01-12T02:14:46.817Z,7.95
2023-01-12T02:17:49.207Z,9.10
2023-01-12T02:20:37.382Z,8.38
2023-01-12T02:23:18.654Z,8.15
2023-01-12T02:26:30.226Z,8.30
2023-01-12T02:29:29.887Z,8.52
2023-01-12T02:32:17.674Z,8.63
2023-01-12T02:35:02.516Z,8.30
2023-01-12T02:37:51.403Z,7.95
2023-01-12T02:40:35.931Z,8.38
2023-01-12T02:43:27.646Z,8.20
2023-01-12T02:49:25.523Z,7.45
2023-01-12T02:51:59.107Z,8.20
2023-01-12T02:54:30.527Z,8.38
2023-01-12T02:57:08.155Z,8.18
2023-01-12T02:59:43.001Z,7.45
2023-01-12T03:02:18.003Z,8.43
2023-01-12T03:04:47.167Z,7.65
2023-01-12T03:07:16.899Z,7.60
2023-01-12T03:09:57.154Z,8.00
2023-01-12T03:12:37.812Z,8.23
2023-01-12T03:15:11.087Z,8.88
2023-01-12T03:18:04.700Z,7.72
2023-01-12T03:20:44.679Z,7.47
2023-01-12T03:23:22.335Z,7.03
2023-01-12T03:25:53.465Z,8.48
2023-01-12T03:28:27.538Z,7.43
2023-01-12T03:31:02.520Z,7.78
2023-01-12T03:33:32.648Z,7.10
2023-01-12T03:36:29.380Z,7.55
2023-01-12T03:39:02.387Z,7.43
2023-01-12T03:41:59.292Z,7.15
2023-01-12T03:44:36.096Z,7.22
2023-01-12T03:47:14.136Z,6.47
2023-01-12T03:49:57.036Z,7.47
2023-01-12T03:52:29.358Z,7.20
2023-01-12T03:55:02.090Z,7.95
2023-01-12T03:57:34.460Z,8.20
2023-01-12T04:00:07.117Z,6.70
2023-01-12T04:02:44.796Z,7.03
2023-01-12T04:05:15.829Z,7.25
2023-01-12T04:07:44.843Z,7.10
2023-01-12T04:10:14.696Z,7.35
2023-01-12T04:12:51.680Z,8.13
2023-01-12T04:15:21.632Z,6.97
2023-01-12T04:17:54.696Z,8.43
2023-01-12T04:20:37.714Z,7.40
2023-01-12T04:23:33.490Z,7.80
2023-01-12T04:26:02.826Z,7.05
2023-01-12T04:28:57.554Z,8.13
2023-01-12T04:31:28.305Z,8.02
2023-01-12T04:33:57.437Z,7.85
2023-01-12T04:36:26.764Z,8.10
2023-01-12T04:38:55.441Z,7.57
2023-01-12T04:41:25.316Z,7.63
2023-01-12T04:43:55.588Z,7.35
2023-01-12T04:46:25.025Z,7.05
2023-01-12T04:48:54.147Z,6.68
2023-01-12T04:51:23.933Z,7.28
2023-01-12T04:53:53.397Z,7.10
2023-01-12T04:56:22.883Z,7.10
2023-01-12T04:59:02.072Z,6.32
2023-01-12T05:01:31.882Z,6.65
2023-01-12T05:04:01.999Z,7.25
2023-01-12T05:06:32.618Z,6.85
2023-01-12T05:09:20.086Z,7.30
2023-01-12T05:11:51.064Z,6.20
2023-01-12T05:14:20.498Z,6.72
2023-01-12T05:16:50.024Z,7.45
2023-01-12T05:19:19.382Z,7.18
2023-01-12T05:21:49.192Z,6.88
2023-01-12T05:24:18.848Z,6.68
2023-01-12T05:26:47.482Z,7.25
2023-01-12T05:29:18.180Z,6.05
2023-01-12T05:31:48.161Z,6.53
2023-01-12T05:34:20.738Z,7.45
2023-01-12T05:36:51.122Z,7.65
2023-01-12T05:39:22.285Z,7.60
2023-01-12T05:42:09.978Z,6.30
2023-01-12T05:44:42.628Z,6.50
2023-01-12T05:49:42.890Z,10.52
2023-01-12T05:52:23.457Z,7.22
2023-01-12T05:55:12.734Z,7.35
2023-01-12T05:57:41.753Z,8.93
2023-01-12T06:00:11.970Z,8.60
2023-01-12T06:02:45.182Z,8.38
2023-01-12T06:05:15.491Z,8.40
2023-01-12T06:07:44.816Z,8.00
2023-01-12T06:10:17.464Z,8.07
2023-01-12T06:13:09.479Z,8.63
2023-01-12T06:15:40.345Z,9.20
2023-01-12T06:18:10.138Z,9.75
2023-01-12T06:20:40.462Z,9.52
2023-01-12T06:23:09.507Z,10.40
2023-01-12T06:25:39.503Z,10.77
2023-01-12T06:28:09.013Z,11.30
2023-01-12T06:30:38.644Z,11.15
2023-01-12T06:33:09.069Z,9.93
2023-01-12T06:35:38.886Z,9.75
2023-01-12T06:38:08.985Z,9.80
2023-01-12T06:40:38.994Z,9.68
2023-01-12T06:43:08.777Z,9.52
2023-01-12T06:45:38.117Z,9.38
2023-01-12T06:48:07.717Z,8.75
2023-01-12T06:50:39.050Z,8.82
2023-01-12T06:53:08.633Z,8.50
2023-01-12T06:55:38.540Z,7.57
2023-01-12T06:58:08.227Z,7.90
2023-01-12T07:00:37.398Z,7.80
2023-01-12T07:03:08.319Z,8.50
2023-01-12T07:05:38.352Z,10.07
2023-01-12T07:08:09.779Z,9.32
2023-01-12T07:10:39.253Z,10.07
2023-01-12T07:13:09.131Z,13.70
2023-01-12T07:15:42.127Z,13.57
2023-01-12T07:18:11.943Z,10.68
2023-01-12T07:20:41.069Z,9.93
2023-01-12T07:23:10.548Z,11.43
2023-01-12T07:25:39.924Z,10.80
2023-01-12T07:28:10.529Z,9.10
2023-01-12T07:30:39.981Z,9.27
2023-01-12T07:33:22.494Z,9.15
2023-01-12T07:36:00.396Z,9.77
2023-01-12T07:38:32.118Z,8.73
2023-01-12T07:41:02.917Z,8.98
2023-01-12T07:43:34.607Z,9.52
2023-01-12T07:46:04.633Z,6.75
2023-01-12T07:48:39.746Z,9.10
2023-01-12T07:51:09.607Z,8.73
2023-01-12T07:53:39.453Z,8.43
2023-01-12T07:56:10.368Z,10.30
2023-01-12T07:58:39.752Z,9.13
2023-01-12T08:01:09.673Z,9.45
2023-01-12T08:03:40.512Z,9.25
2023-01-12T08:06:11.137Z,10.15
2023-01-12T08:08:40.659Z,8.80
2023-01-12T08:11:12.129Z,8.40
2023-01-12T08:16:24.970Z,15.68
2023-01-12T08:19:10.891Z,18.60
2023-01-12T08:21:54.119Z,18.08
2023-01-12T08:24:35.210Z,14.18
2023-01-12T08:27:13.830Z,11.40
2023-01-12T08:29:51.762Z,12.50
2023-01-12T08:32:21.808Z,38.80
2023-01-12T08:34:53.688Z,19.90
2023-01-12T08:37:25.841Z,17.08
2023-01-12T08:39:54.901Z,13.40
2023-01-12T08:42:27.994Z,12.63
2023-01-12T08:45:00.878Z,12.90
2023-01-12T08:47:31.407Z,15.85
2023-01-12T08:50:01.588Z,14.18
2023-01-12T08:52:33.306Z,13.50
2023-01-12T08:55:12.483Z,13.15
2023-01-12T08:57:42.384Z,13.57
2023-01-12T09:00:13.114Z,12.20
2023-01-12T09:02:43.149Z,11.50
2023-01-12T09:05:12.453Z,12.50
2023-01-12T09:07:43.291Z,12.90
2023-01-12T09:10:13.132Z,14.07
2023-01-12T09:12:43.154Z,13.90
2023-01-12T09:15:14.801Z,13.23
2023-01-12T09:17:45.098Z,13.05
2023-01-12T09:20:17.130Z,12.25
2023-01-12T09:22:50.151Z,11.48
2023-01-12T09:25:19.761Z,14.85
2023-01-12T09:27:49.553Z,14.70
2023-01-12T09:30:22.794Z,13.90
2023-01-12T09:32:52.531Z,15.00
2023-01-12T09:35:22.824Z,14.23
2023-01-12T09:37:52.692Z,89.75
2023-01-12T09:40:21.684Z,18.23
2023-01-12T09:43:11.612Z,13.52
2023-01-12T09:46:03.194Z,11.57
2023-01-12T09:48:32.595Z,12.38
2023-01-12T09:51:15.266Z,11.98
2023-01-12T09:56:42.344Z,10.88
2023-01-12T09:59:42.298Z,12.35
2023-01-12T10:02:15.918Z,10.88
2023-01-12T10:04:50.984Z,11.70
2023-01-12T10:07:22.185Z,11.07
2023-01-12T10:09:52.143Z,13.27
2023-01-12T10:12:36.845Z,11.68
2023-01-12T10:15:09.780Z,11.55
2023-01-12T10:17:52.851Z,9.77
2023-01-12T10:20:44.666Z,10.38
2023-01-12T10:23:25.606Z,11.18
2023-01-12T10:26:02.502Z,11.13
2023-01-12T10:28:35.039Z,11.77
2023-01-12T10:31:05.470Z,14.82
2023-01-12T10:37:23.204Z,13.88
2023-01-12T10:39:53.263Z,12.82
2023-01-12T10:42:42.512Z,11.48
2023-01-12T10:45:17.739Z,13.25
2023-01-12T10:47:49.150Z,14.50
2023-01-12T10:50:24.698Z,13.13
2023-01-12T10:53:19.009Z,13.52
2023-01-12T10:55:49.040Z,12.88
2023-01-12T10:58:33.958Z,13.65
2023-01-12T11:01:06.989Z,11.77
2023-01-12T11:03:40.854Z,14.60
2023-01-12T11:06:28.754Z,12.25
2023-01-12T11:08:59.701Z,12.55
2023-01-12T11:11:34.573Z,12.32
2023-01-12T11:14:05.731Z,10.85
2023-01-12T11:16:43.896Z,11.82
2023-01-12T11:19:30.142Z,11.80
2023-01-12T11:22:19.697Z,13.30
2023-01-12T11:25:26.439Z,12.27
2023-01-12T11:28:15.357Z,12.50
2023-01-12T11:30:52.588Z,11.50
2023-01-12T11:33:39.239Z,11.73
2023-01-12T11:36:50.193Z,12.75
2023-01-12T11:39:25.162Z,16.88
2023-01-12T11:42:17.111Z,13.10
2023-01-12T11:45:03.043Z,12.90
2023-01-12T11:47:41.932Z,13.48
2023-01-12T11:50:25.005Z,13.85
2023-01-12T11:52:59.229Z,14.43
2023-01-12T11:56:11.825Z,14.82
2023-01-12T11:58:52.792Z,11.15
2023-01-12T12:01:38.095Z,10.50
2023-01-12T12:04:41.630Z,10.65
2023-01-12T12:07:39.556Z,11.48
2023-01-12T12:10:24.528Z,10.75
2023-01-12T12:13:10.478Z,11.95
2023-01-12T12:15:56.712Z,10.35
2023-01-12T12:18:44.450Z,14.30
2023-01-12T12:21:49.318Z,14.38
2023-01-12T12:24:47.527Z,11.65
2023-01-12T12:27:29.222Z,11.00
2023-01-12T12:30:05.250Z,10.50
2023-01-12T12:32:44.327Z,13.32
2023-01-12T12:35:55.360Z,15.07
2023-01-12T12:38:39.521Z,11.57
2023-01-12T12:41:41.603Z,10.45
2023-01-12T12:45:05.937Z,9.70
2023-01-12T12:47:45.084Z,10.43
2023-01-12T12:50:21.796Z,10.48
2023-01-12T12:53:06.702Z,10.65
2023-01-12T12:55:38.198Z,10.27
2023-01-12T12:58:28.594Z,11.07
2023-01-12T13:01:20.572Z,11.05
2023-01-12T13:03:59.524Z,11.45
2023-01-12T13:06:32.479Z,11.40
2023-01-12T13:09:25.765Z,9.75
2023-01-12T13:12:19.159Z,12.10
2023-01-12T13:15:22.167Z,13.02
2023-01-12T13:17:53.551Z,15.02
2023-01-12T13:20:48.720Z,14.25
2023-01-12T13:23:47.929Z,11.52
2023-01-12T13:26:34.035Z,10.25
2023-01-12T13:29:27.242Z,11.10
2023-01-12T13:32:21.471Z,10.27
2023-01-12T13:34:52.897Z,20.55
2023-01-12T13:37:48.901Z,13.95
2023-01-12T13:40:27.475Z,10.45
2023-01-12T13:43:17.634Z,10.55
2023-01-12T13:46:13.697Z,10.70
2023-01-12T13:48:47.872Z,10.43
2023-01-12T13:51:16.885Z,11.02
2023-01-12T13:54:01.866Z,11.57
2023-01-12T13:56:32.921Z,10.02
2023-01-12T13:59:04.671Z,10.05
2023-01-12T14:04:27.547Z,8.55
2023-01-12T14:07:11.621Z,9.35
2023-01-12T14:09:59.205Z,7.95
2023-01-12T14:12:30.557Z,7.03
2023-01-12T14:15:47.224Z,5.85
2023-01-12T14:18:20.087Z,6.07
2023-01-12T14:20:54.003Z,5.45
2023-01-12T14:23:23.340Z,6.78
2023-01-12T14:26:12.895Z,6.97
2023-01-12T14:28:48.402Z,5.57
2023-01-12T14:31:32.801Z,5.90
2023-01-12T14:34:05.114Z,6.45
2023-01-12T14:39:21.654Z,5.78
2023-01-12T14:42:14.700Z,5.68
2023-01-12T14:45:14.788Z,7.35
2023-01-12T14:47:43.769Z,6.40
2023-01-12T14:50:19.868Z,6.03
2023-01-12T14:52:50.051Z,5.97
2023-01-12T14:55:27.398Z,7.90
2023-01-12T14:58:05.353Z,7.45
2023-01-12T15:00:38.355Z,7.85
2023-01-12T15:03:26.384Z,7.45
2023-01-12T15:05:58.344Z,7.15
2023-01-12T15:08:29.525Z,7.35
2023-01-12T15:11:07.022Z,6.85
2023-01-12T15:13:38.264Z,9.25
2023-01-12T15:16:28.465Z,6.50
2023-01-12T15:19:16.124Z,7.47
2023-01-12T15:22:06.087Z,7.75
2023-01-12T15:24:55.007Z,8.15
2023-01-12T15:27:25.262Z,7.63
2023-01-12T15:29:55.693Z,8.38
2023-01-12T15:32:51.895Z,9.20
2023-01-12T15:35:26.581Z,9.05
2023-01-12T15:38:04.403Z,9.45
2023-01-12T15:40:36.600Z,9.75
2023-01-12T15:43:06.451Z,10.00
2023-01-12T15:45:44.309Z,11.15
2023-01-12T15:48:14.610Z,13.32
2023-01-12T15:50:46.264Z,10.60
2023-01-12T15:53:24.244Z,12.85
2023-01-12T15:55:54.119Z,11.68
2023-01-12T15:58:24.125Z,13.27
2023-01-12T16:00:53.600Z,10.18
2023-01-12T16:03:54.605Z,12.85
2023-01-12T16:06:13.175Z,12.90
2023-01-12T16:08:48.932Z,12.23
2023-01-12T16:11:22.886Z,13.30
2023-01-12T16:13:51.874Z,13.48
2023-01-12T16:16:22.100Z,13.80
2023-01-12T16:18:51.078Z,21.33
2023-01-12T16:21:24.573Z,15.50
2023-01-12T16:23:53.720Z,14.55
2023-01-12T16:26:24.780Z,15.27
2023-01-12T16:28:55.481Z,17.15
2023-01-12T16:31:26.568Z,17.77
2023-01-12T16:33:55.789Z,17.55
2023-01-12T16:36:25.381Z,20.20
2023-01-12T16:38:54.523Z,21.50
2023-01-12T16:41:24.050Z,20.60
2023-01-12T16:43:55.466Z,20.35
2023-01-12T16:46:26.177Z,21.08
2023-01-12T16:48:57.180Z,23.00
2023-01-12T16:51:59.294Z,19.50
2023-01-12T16:54:43.100Z,28.30
2023-01-12T16:57:17.610Z,32.72
2023-01-12T16:59:48.127Z,30.60
2023-01-12T17:02:21.362Z,29.48
2023-01-12T17:04:52.943Z,27.50
2023-01-12T17:07:27.661Z,26.25
2023-01-12T17:09:56.917Z,26.55
2023-01-12T17:12:26.683Z,26.35
2023-01-12T17:14:56.803Z,25.33
2023-01-12T17:17:26.616Z,23.73
2023-01-12T17:20:00.571Z,23.85
2023-01-12T17:22:31.946Z,24.13
2023-01-12T17:25:01.655Z,23.08
2023-01-12T17:27:31.648Z,23.05
2023-01-12T17:30:01.864Z,22.70
2023-01-12T17:32:31.349Z,22.63
2023-01-12T17:35:02.300Z,24.90
2023-01-12T17:37:32.238Z,24.50
2023-01-12T17:40:09.159Z,23.60
2023-01-12T17:42:57.070Z,24.63
2023-01-12T17:45:27.470Z,25.70
2023-01-12T17:47:56.959Z,25.23
2023-01-12T17:50:26.954Z,24.35
2023-01-12T17:52:57.174Z,23.50
2023-01-12T17:55:27.860Z,26.10
2023-01-12T17:57:57.766Z,26.30
2023-01-12T18:00:25.721Z,26.48
2023-01-12T18:02:56.681Z,27.83
2023-01-12T18:05:27.946Z,27.67
2023-01-12T18:07:57.845Z,29.35
2023-01-12T18:10:27.782Z,29.58
2023-01-12T18:12:57.468Z,30.90
2023-01-12T18:15:29.458Z,31.73
2023-01-12T18:17:59.325Z,33.28
2023-01-12T18:20:28.407Z,32.30
2023-01-12T18:22:58.320Z,31.27
2023-01-12T18:25:27.889Z,30.23
2023-01-12T18:27:57.223Z,28.17
2023-01-12T18:30:28.403Z,27.10
2023-01-12T18:32:58.296Z,28.15
2023-01-12T18:35:30.363Z,27.52
2023-01-12T18:37:59.985Z,26.90
2023-01-12T18:40:34.247Z,27.73
2023-01-12T18:43:03.138Z,27.92
2023-01-12T18:45:33.156Z,28.90
2023-01-12T18:48:20.959Z,26.95
2023-01-12T18:51:13.716Z,30.20
2023-01-12T18:56:12.633Z,26.77
2023-01-12T18:58:46.904Z,26.45
2023-01-12T19:01:22.654Z,25.55
2023-01-12T19:03:54.729Z,27.67
2023-01-12T19:06:29.424Z,28.35
2023-01-12T19:09:16.629Z,27.70
2023-01-12T19:11:46.321Z,29.38
2023-01-12T19:14:34.305Z,29.50
2023-01-12T19:17:22.519Z,28.67
2023-01-12T19:19:53.182Z,27.55
2023-01-12T19:22:41.862Z,29.17
2023-01-12T19:25:34.532Z,25.67
2023-01-12T19:28:23.477Z,27.83
2023-01-12T19:30:52.994Z,25.27
2023-01-12T19:33:22.906Z,25.25
2023-01-12T19:35:52.939Z,25.23
2023-01-12T19:38:23.113Z,27.73
2023-01-12T19:40:55.829Z,24.75
2023-01-12T19:43:28.854Z,28.25
2023-01-12T19:46:03.652Z,26.55
2023-01-12T19:48:35.990Z,27.08
2023-01-12T19:51:10.655Z,27.42
2023-01-12T19:53:41.536Z,26.48
2023-01-12T19:56:15.463Z,27.60
2023-01-12T19:58:48.291Z,25.10
2023-01-12T20:01:24.717Z,27.48
2023-01-12T20:03:56.234Z,63.03
2023-01-12T20:06:26.264Z,32.28
2023-01-12T20:08:58.155Z,28.27
2023-01-12T20:11:27.375Z,28.95
2023-01-12T20:13:57.084Z,27.80
2023-01-12T20:16:27.122Z,29.48
2023-01-12T20:19:00.044Z,33.63
2023-01-12T20:21:29.964Z,29.50
2023-01-12T20:23:59.880Z,30.08
2023-01-12T20:26:29.949Z,28.58
2023-01-12T20:29:02.893Z,30.92
2023-01-12T20:31:40.240Z,29.88
2023-01-12T20:34:09.794Z,30.70
2023-01-12T20:36:40.951Z,46.55
2023-01-12T20:39:14.877Z,43.08
2023-01-12T20:41:45.109Z,38.50
2023-01-12T20:44:18.490Z,34.58
2023-01-12T20:46:49.617Z,30.92
2023-01-12T20:49:20.696Z,29.40
2023-01-12T20:51:50.930Z,30.13
2023-01-12T20:54:22.229Z,31.45
2023-01-12T20:56:52.554Z,35.67
2023-01-12T20:59:21.508Z,41.10
2023-01-12T21:01:50.625Z,41.70
2023-01-12T21:04:20.117Z,42.15
2023-01-12T21:06:50.026Z,50.30
2023-01-12T21:09:20.284Z,42.17
2023-01-12T21:11:50.537Z,39.75
2023-01-12T21:14:20.430Z,49.00
2023-01-12T21:16:50.003Z,41.50
2023-01-12T21:19:19.795Z,35.90
2023-01-12T21:21:49.851Z,35.38
2023-01-12T21:24:22.798Z,34.45
2023-01-12T21:26:51.540Z,35.47
2023-01-12T21:29:20.735Z,34.70
2023-01-12T21:31:50.215Z,35.30
2023-01-12T21:34:19.573Z,35.30
2023-01-12T21:36:49.564Z,31.90
2023-01-12T21:39:20.810Z,31.95
2023-01-12T21:42:08.540Z,32.22
2023-01-12T21:44:38.453Z,31.92
2023-01-12T21:47:08.389Z,32.13
2023-01-12T21:49:38.525Z,30.88
2023-01-12T21:52:09.780Z,31.35
2023-01-12T21:54:39.222Z,31.73
2023-01-12T21:57:08.694Z,32.78
2023-01-12T21:59:38.044Z,32.15
2023-01-12T22:02:06.471Z,32.60
2023-01-12T22:04:36.247Z,32.17
2023-01-12T22:07:06.111Z,32.83
2023-01-12T22:09:35.931Z,34.13
2023-01-12T22:12:05.122Z,31.65
2023-01-12T22:14:34.839Z,31.63
2023-01-12T22:17:04.332Z,32.58
2023-01-12T22:19:33.715Z,35.67
2023-01-12T22:22:03.245Z,37.75
2023-01-12T22:24:32.622Z,37.97
2023-01-12T22:27:03.668Z,31.50
2023-01-12T22:29:32.881Z,37.22
2023-01-12T22:32:03.815Z,36.72
2023-01-12T22:34:33.562Z,34.00
2023-01-12T22:37:01.814Z,32.42
2023-01-12T22:39:30.803Z,33.80
2023-01-12T22:42:00.310Z,35.13
2023-01-12T22:44:30.301Z,36.58
2023-01-12T22:47:00.862Z,34.10
2023-01-12T22:49:31.691Z,33.20
2023-01-12T22:52:01.079Z,35.67
2023-01-12T22:54:30.293Z,37.50
2023-01-12T22:57:00.957Z,40.10
2023-01-12T22:59:31.008Z,36.08
2023-01-12T23:02:21.319Z,34.85
2023-01-12T23:04:51.917Z,34.63
2023-01-12T23:07:21.440Z,35.65
2023-01-12T23:09:50.063Z,34.83
2023-01-12T23:12:20.687Z,35.30
2023-01-12T23:14:49.714Z,36.00
2023-01-12T23:17:18.981Z,35.05
2023-01-12T23:19:47.861Z,32.88
2023-01-12T23:22:17.797Z,30.90
2023-01-12T23:24:48.019Z,33.70
2023-01-12T23:27:17.482Z,31.60
2023-01-12T23:29:48.427Z,45.50
2023-01-12T23:32:17.756Z,32.33
2023-01-12T23:34:47.300Z,32.13
2023-01-12T23:37:16.659Z,32.80
2023-01-12T23:39:46.199Z,32.13
2023-01-12T23:42:16.185Z,44.05
2023-01-12T23:44:46.405Z,37.17
2023-01-12T23:47:16.642Z,32.15
2023-01-12T23:49:46.190Z,33.35
2023-01-12T23:52:17.313Z,33.78
2023-01-12T23:54:46.917Z,34.45
2023-01-12T23:57:15.994Z,33.00
2023-01-12T23:59:45.900Z,35.15
